createdAt,value
2022-09-09T00:04:35.775Z,8.00
2022-09-09T00:12:47.642Z,7.63
2022-09-09T00:21:01.638Z,7.47
2022-09-09T00:29:18.083Z,8.35
2022-09-09T00:37:29.392Z,8.05
2022-09-09T00:45:56.403Z,8.07
2022-09-09T00:54:36.748Z,8.45
2022-09-09T01:02:58.177Z,8.15
2022-09-09T01:11:04.127Z,9.10
2022-09-09T01:19:27.304Z,8.38
2022-09-09T01:27:38.537Z,8.18
2022-09-09T01:35:52.715Z,9.10
2022-09-09T01:44:02.665Z,9.02
2022-09-09T01:52:10.050Z,7.97
2022-09-09T02:00:20.902Z,8.55
2022-09-09T02:08:44.395Z,8.00
2022-09-09T02:17:00.321Z,6.50
2022-09-09T02:25:19.067Z,6.97
2022-09-09T02:33:31.550Z,5.85
2022-09-09T02:41:40.683Z,6.10
2022-09-09T02:50:00.513Z,6.00
2022-09-09T02:58:10.622Z,6.28
2022-09-09T03:06:18.551Z,6.40
2022-09-09T03:14:29.422Z,6.00
2022-09-09T03:22:37.538Z,6.55
2022-09-09T03:30:43.006Z,6.18
2022-09-09T03:38:51.872Z,7.30
2022-09-09T03:46:57.686Z,8.05
2022-09-09T03:55:05.778Z,11.45
2022-09-09T04:03:11.260Z,10.43
2022-09-09T04:11:19.577Z,8.90
2022-09-09T04:19:26.757Z,8.05
2022-09-09T04:27:35.323Z,8.80
2022-09-09T04:35:41.899Z,8.35
2022-09-09T04:43:49.961Z,8.70
2022-09-09T04:51:56.734Z,9.63
2022-09-09T05:00:05.333Z,9.70
2022-09-09T05:08:14.609Z,10.23
2022-09-09T05:16:24.060Z,9.90
2022-09-09T05:24:29.587Z,9.32
2022-09-09T05:32:39.809Z,9.95
2022-09-09T05:40:53.287Z,10.55
2022-09-09T05:49:01.426Z,9.70
2022-09-09T05:57:10.103Z,9.38
2022-09-09T06:05:18.212Z,10.10
2022-09-09T06:13:25.217Z,11.55
2022-09-09T06:21:34.580Z,12.02
2022-09-09T06:29:41.402Z,15.13
2022-09-09T06:37:53.487Z,13.27
2022-09-09T06:46:00.561Z,13.77
2022-09-09T06:54:08.666Z,11.20
2022-09-09T07:02:14.447Z,11.70
2022-09-09T07:10:22.528Z,8.75
2022-09-09T07:18:29.103Z,8.98
2022-09-09T07:26:37.846Z,8.73
2022-09-09T07:34:43.876Z,8.90
2022-09-09T07:42:52.172Z,9.75
2022-09-09T07:51:07.047Z,9.55
2022-09-09T07:59:15.206Z,9.52
2022-09-09T08:07:22.629Z,8.52
2022-09-09T08:15:35.784Z,8.65
2022-09-09T08:23:43.314Z,8.45
2022-09-09T08:31:53.966Z,8.77
2022-09-09T08:39:59.399Z,9.55
2022-09-09T08:48:22.065Z,8.55
2022-09-09T08:56:30.819Z,9.07
2022-09-09T09:04:49.435Z,8.52
2022-09-09T09:12:55.944Z,9.32
2022-09-09T09:21:12.240Z,9.40
2022-09-09T09:29:23.835Z,9.15
2022-09-09T09:37:36.505Z,9.40
2022-09-09T09:46:06.891Z,9.07
2022-09-09T09:54:22.638Z,10.52
2022-09-09T10:02:44.349Z,11.13
2022-09-09T10:11:18.204Z,9.65
2022-09-09T10:19:32.811Z,9.82
2022-09-09T10:27:56.897Z,9.05
2022-09-09T10:36:11.495Z,11.55
2022-09-09T10:44:38.327Z,12.75
2022-09-09T10:52:54.663Z,12.98
2022-09-09T11:01:08.923Z,11.45
2022-09-09T11:09:19.796Z,12.80
2022-09-09T11:17:34.865Z,11.50
2022-09-09T11:25:44.311Z,11.85
2022-09-09T11:34:22.603Z,12.88
2022-09-09T11:42:28.717Z,11.07
2022-09-09T11:50:41.653Z,10.35
2022-09-09T11:58:57.590Z,11.98
2022-09-09T12:07:26.479Z,13.63
2022-09-09T12:15:32.850Z,14.43
2022-09-09T12:23:49.366Z,13.30
2022-09-09T12:32:01.622Z,12.57
2022-09-09T12:40:22.399Z,13.03
2022-09-09T12:48:34.120Z,13.65
2022-09-09T12:56:42.137Z,11.95
2022-09-09T13:04:48.155Z,13.02
2022-09-09T13:12:56.313Z,10.90
2022-09-09T13:21:01.783Z,10.18
2022-09-09T13:29:24.263Z,9.05
2022-09-09T13:37:35.651Z,11.65
2022-09-09T13:45:43.688Z,10.25
2022-09-09T13:53:50.358Z,9.35
2022-09-09T14:01:58.460Z,9.52
2022-09-09T14:10:03.803Z,10.05
2022-09-09T14:18:15.614Z,10.93
2022-09-09T14:26:22.170Z,10.57
2022-09-09T14:34:30.171Z,11.27
2022-09-09T14:42:35.501Z,10.65
2022-09-09T14:50:44.755Z,10.70
2022-09-09T14:58:50.259Z,11.88
2022-09-09T15:06:58.110Z,10.88
2022-09-09T15:15:03.524Z,10.25
2022-09-09T15:23:12.099Z,11.43
2022-09-09T15:31:19.084Z,11.23
2022-09-09T15:39:28.866Z,11.25
2022-09-09T15:47:34.307Z,10.95
2022-09-09T15:55:42.281Z,10.40
2022-09-09T16:03:48.226Z,10.50
2022-09-09T16:11:57.575Z,10.30
2022-09-09T16:20:03.192Z,9.98
2022-09-09T16:28:11.103Z,10.48
2022-09-09T16:36:18.374Z,10.80
2022-09-09T16:44:27.281Z,9.90
2022-09-09T16:52:32.585Z,10.13
2022-09-09T17:00:40.735Z,10.48
2022-09-09T17:08:46.925Z,12.18
2022-09-09T17:16:55.114Z,11.43
2022-09-09T17:25:00.374Z,12.90
2022-09-09T17:33:08.514Z,13.60
2022-09-09T17:41:16.451Z,13.80
2022-09-09T17:49:24.415Z,13.88
2022-09-09T17:57:29.768Z,12.98
2022-09-09T18:05:38.600Z,11.77
2022-09-09T18:13:44.195Z,10.45
2022-09-09T18:21:52.885Z,9.93
2022-09-09T18:29:58.241Z,11.73
2022-09-09T18:38:06.271Z,10.82
2022-09-09T18:46:12.874Z,13.30
2022-09-09T18:54:26.119Z,11.25
2022-09-09T19:02:31.458Z,11.98
2022-09-09T19:10:42.158Z,13.20
2022-09-09T19:18:48.472Z,13.13
2022-09-09T19:27:00.142Z,13.85
2022-09-09T19:35:06.038Z,14.50
2022-09-09T19:43:14.082Z,15.10
2022-09-09T19:51:21.854Z,18.10
2022-09-09T19:59:30.478Z,15.85
2022-09-09T20:07:35.807Z,16.25
2022-09-09T20:15:43.696Z,17.10
2022-09-09T20:23:49.562Z,16.88
2022-09-09T20:31:57.565Z,17.90
2022-09-09T20:40:03.359Z,18.85
2022-09-09T20:48:11.336Z,17.48
2022-09-09T20:56:18.277Z,16.42
2022-09-09T21:04:26.595Z,18.23
2022-09-09T21:12:31.879Z,17.58
2022-09-09T21:20:39.831Z,19.73
2022-09-09T21:28:45.927Z,16.50
2022-09-09T21:36:53.948Z,16.67
2022-09-09T21:44:59.282Z,16.20
2022-09-09T21:53:11.195Z,16.40
2022-09-09T22:01:18.649Z,16.73
2022-09-09T22:09:26.785Z,19.25
2022-09-09T22:17:32.121Z,18.10
2022-09-09T22:25:41.355Z,17.77
2022-09-09T22:33:46.680Z,17.85
2022-09-09T22:41:54.583Z,16.45
2022-09-09T22:49:59.935Z,17.00
2022-09-09T22:58:07.970Z,16.75
2022-09-09T23:06:15.668Z,14.52
2022-09-09T23:14:23.566Z,15.57
2022-09-09T23:22:29.891Z,15.50
2022-09-09T23:30:37.820Z,18.85
2022-09-09T23:38:44.107Z,16.88
2022-09-09T23:46:52.008Z,15.27
2022-09-09T23:54:57.346Z,15.23
